Time;durP1;ratioP1;P1;durP2;ratioP2;P2;SDS_P1;SDS_P2;PMS_P1;PMS_P2;Temp;Humidity;BMP_temperature;BMP_pressure;BME280_temperature;BME280_humidity;BME280_pressure;Samples;Min_cycle;Max_cycle;Signal;HPM_P1;HPM_P2
2021/01/17 00:00:32;;;;;;;34.00;26.83;;;-0.10;99.90;;;;;;5103118;27;20452;-73
2021/01/17 00:03:00;;;;;;;47.77;28.13;;;0.00;99.90;;;;;;5104359;28;20972;-72
2021/01/17 00:05:27;;;;;;;35.63;30.27;;;0.00;99.90;;;;;;5105587;28;20941;-74
2021/01/17 00:07:54;;;;;;;40.43;30.00;;;-0.20;99.90;;;;;;5113226;27;20468;-73
2021/01/17 00:10:22;;;;;;;42.57;30.67;;;-0.20;99.90;;;;;;5100630;27;20460;-73
2021/01/17 00:12:49;;;;;;;51.33;32.00;;;-0.30;99.90;;;;;;5100586;27;20450;-71
2021/01/17 00:15:17;;;;;;;40.20;27.10;;;-0.20;99.90;;;;;;5101827;28;21132;-73
2021/01/17 00:17:45;;;;;;;39.90;30.77;;;-0.20;99.90;;;;;;5098411;28;20583;-74
2021/01/17 00:20:13;;;;;;;49.93;30.97;;;-0.10;99.90;;;;;;5111373;27;20509;-73
2021/01/17 00:22:41;;;;;;;36.37;27.47;;;-0.10;99.90;;;;;;5109191;27;20458;-74
2021/01/17 00:25:09;;;;;;;35.30;27.60;;;-0.10;99.90;;;;;;5113404;27;20457;-73
2021/01/17 00:27:36;;;;;;;72.23;30.93;;;-0.10;99.90;;;;;;5114857;27;20514;-73
2021/01/17 00:30:05;;;;;;;50.03;27.03;;;-0.10;99.90;;;;;;5105621;27;20492;-73
2021/01/17 00:32:32;;;;;;;39.97;32.30;;;-0.10;99.90;;;;;;5099504;28;20464;-74
2021/01/17 00:34:59;;;;;;;49.93;25.67;;;0.00;99.90;;;;;;5100656;28;20477;-73
2021/01/17 00:37:25;;;;;;;32.70;24.40;;;0.00;99.90;;;;;;5097327;27;20464;-71
2021/01/17 00:39:52;;;;;;;44.00;29.07;;;-0.10;99.90;;;;;;5102998;28;20460;-73
2021/01/17 00:42:18;;;;;;;51.03;28.43;;;0.00;99.90;;;;;;5110114;27;20466;-73
2021/01/17 00:44:44;;;;;;;40.57;25.70;;;0.00;99.90;;;;;;5099747;27;20470;-72
2021/01/17 00:47:12;;;;;;;44.53;26.50;;;0.00;99.90;;;;;;5107417;27;20533;-73
2021/01/17 00:49:43;;;;;;;43.10;26.47;;;0.00;99.90;;;;;;5107444;27;21212;-71
2021/01/17 00:52:15;;;;;;;31.80;23.30;;;0.00;99.90;;;;;;5112384;27;20482;-72
2021/01/17 00:54:42;;;;;;;28.27;23.00;;;0.10;99.90;;;;;;5110111;27;20488;-73
2021/01/17 00:57:09;;;;;;;29.70;25.03;;;0.10;99.90;;;;;;5107988;27;20955;-73
2021/01/17 00:59:36;;;;;;;26.53;23.83;;;0.10;99.90;;;;;;5103301;27;20481;-73
2021/01/17 01:02:03;;;;;;;29.83;26.83;;;0.10;99.90;;;;;;5106450;27;20458;-74
2021/01/17 01:04:29;;;;;;;37.07;28.73;;;0.20;99.90;;;;;;5097521;27;20472;-72
2021/01/17 01:06:57;;;;;;;39.90;29.23;;;0.20;99.90;;;;;;5100469;28;20596;-73
2021/01/17 01:09:24;;;;;;;40.53;29.10;;;0.10;99.90;;;;;;5108288;27;20459;-72
2021/01/17 01:11:51;;;;;;;36.43;24.73;;;0.00;99.90;;;;;;5102509;28;20766;-75
2021/01/17 01:14:18;;;;;;;30.73;26.00;;;0.10;99.90;;;;;;5103658;28;20499;-74
2021/01/17 01:16:49;;;;;;;30.40;24.00;;;0.10;99.90;;;;;;5104250;27;20822;-73
2021/01/17 01:19:16;;;;;;;33.53;26.40;;;0.10;99.90;;;;;;5108617;27;20461;-73
2021/01/17 01:21:43;;;;;;;43.73;29.60;;;0.10;99.90;;;;;;5104891;27;20500;-73
2021/01/17 01:24:09;;;;;;;34.73;26.10;;;0.10;99.90;;;;;;5100689;27;20974;-75
2021/01/17 01:26:38;;;;;;;41.73;25.57;;;0.10;99.90;;;;;;5109022;27;20467;-74
2021/01/17 01:29:05;;;;;;;46.07;30.70;;;0.10;99.90;;;;;;5101342;27;20490;-74
2021/01/17 01:31:32;;;;;;;29.00;25.80;;;0.00;99.90;;;;;;5111285;27;20796;-73
2021/01/17 01:33:59;;;;;;;29.87;27.00;;;0.00;99.90;;;;;;5110247;27;20481;-75
2021/01/17 01:36:27;;;;;;;46.50;30.30;;;0.10;99.90;;;;;;5100476;27;20477;-72
2021/01/17 01:38:54;;;;;;;38.63;28.00;;;0.10;99.90;;;;;;5107762;28;20452;-75
2021/01/17 01:41:20;;;;;;;31.00;26.20;;;0.10;99.90;;;;;;5104590;27;20468;-73
2021/01/17 01:43:49;;;;;;;43.30;30.83;;;0.20;99.90;;;;;;5099715;27;20458;-75
2021/01/17 01:46:17;;;;;;;42.03;29.30;;;0.30;99.90;;;;;;5101573;28;20511;-73
2021/01/17 01:48:44;;;;;;;39.60;28.27;;;0.10;99.90;;;;;;5105701;27;20485;-75
2021/01/17 01:51:12;;;;;;;33.63;26.80;;;0.10;99.90;;;;;;5100814;28;21083;-74
2021/01/17 01:53:39;;;;;;;39.77;31.10;;;0.20;99.90;;;;;;5100069;28;20790;-75
2021/01/17 01:56:05;;;;;;;39.23;32.20;;;0.20;99.90;;;;;;5100384;28;20459;-75
2021/01/17 01:58:33;;;;;;;33.30;29.40;;;0.10;99.90;;;;;;5102846;27;20887;-74
2021/01/17 02:01:01;;;;;;;30.27;27.17;;;0.10;99.90;;;;;;5097279;27;20498;-74
2021/01/17 02:03:27;;;;;;;41.03;31.10;;;0.20;99.90;;;;;;5103151;28;20479;-75
2021/01/17 02:05:53;;;;;;;32.87;29.30;;;0.30;99.90;;;;;;5105068;28;20467;-73
2021/01/17 02:09:05;;;;;;;45.43;33.40;;;0.30;99.90;;;;;;5100125;28;20469;-75
2021/01/17 02:11:46;;;;;;;39.93;30.93;;;0.20;99.90;;;;;;4998908;28;20458;-74
2021/01/17 02:14:21;;;;;;;30.47;27.77;;;0.20;99.90;;;;;;5094592;28;20476;-74
2021/01/17 02:16:51;;;;;;;41.63;32.63;;;0.20;99.90;;;;;;5098741;28;20859;-73
2021/01/17 02:19:20;;;;;;;34.33;30.70;;;0.20;99.90;;;;;;5097464;28;20466;-73
2021/01/17 02:21:55;;;;;;;44.33;32.67;;;0.20;99.90;;;;;;5103140;28;20468;-74
2021/01/17 02:24:33;;;;;;;44.97;31.57;;;0.30;99.90;;;;;;5103544;27;20805;-73
2021/01/17 02:27:02;;;;;;;35.73;30.70;;;0.30;99.90;;;;;;5102463;28;20926;-74
2021/01/17 02:29:29;;;;;;;44.20;33.17;;;0.30;99.90;;;;;;5100658;28;20823;-74
2021/01/17 02:32:00;;;;;;;39.40;31.67;;;0.30;99.90;;;;;;5099843;28;20466;-74
2021/01/17 02:34:29;;;;;;;33.80;30.10;;;0.30;99.90;;;;;;5103579;28;20909;-73
2021/01/17 02:37:06;;;;;;;32.23;28.87;;;0.30;99.90;;;;;;5101230;28;20461;-74
2021/01/17 02:39:43;;;;;;;38.03;30.70;;;0.30;99.90;;;;;;5097703;27;21024;-74
2021/01/17 02:42:11;;;;;;;30.27;27.40;;;0.40;99.90;;;;;;5091998;28;20946;-73
2021/01/17 02:44:38;;;;;;;37.90;31.07;;;0.40;99.90;;;;;;5099257;28;20543;-74
2021/01/17 02:47:04;;;;;;;43.43;30.23;;;0.40;99.90;;;;;;5098194;28;20489;-74
2021/01/17 02:49:31;;;;;;;48.73;31.60;;;0.30;99.90;;;;;;5099576;28;20974;-74
2021/01/17 02:51:57;;;;;;;32.93;29.27;;;0.30;99.90;;;;;;5095904;28;20504;-74
2021/01/17 02:54:30;;;;;;;39.03;29.70;;;0.30;99.90;;;;;;5105449;28;20622;-74
2021/01/17 02:57:02;;;;;;;46.77;30.33;;;0.30;99.90;;;;;;5103732;28;20914;-73
2021/01/17 02:59:34;;;;;;;49.87;28.83;;;0.30;99.90;;;;;;5100631;28;20503;-74
2021/01/17 03:02:03;;;;;;;48.00;30.67;;;0.30;99.90;;;;;;5101245;28;20490;-73
2021/01/17 03:04:43;;;;;;;39.20;30.47;;;0.30;99.90;;;;;;5102992;28;20517;-74
2021/01/17 03:07:13;;;;;;;49.93;31.07;;;0.20;99.90;;;;;;5102426;28;20864;-73
2021/01/17 03:09:42;;;;;;;45.20;31.97;;;0.20;99.90;;;;;;5099129;28;20454;-72
2021/01/17 03:12:09;;;;;;;46.97;29.23;;;0.10;99.90;;;;;;5100034;28;20463;-73
2021/01/17 03:14:38;;;;;;;49.57;30.10;;;0.20;99.90;;;;;;5098107;28;20495;-73
2021/01/17 03:17:06;;;;;;;31.27;27.90;;;0.20;99.90;;;;;;5096418;28;20479;-74
2021/01/17 03:19:33;;;;;;;36.93;29.60;;;0.20;99.90;;;;;;5099228;28;20457;-72
2021/01/17 03:22:00;;;;;;;35.10;28.70;;;0.20;99.90;;;;;;5105802;28;20829;-72
2021/01/17 03:24:27;;;;;;;34.10;28.70;;;0.30;99.90;;;;;;5102541;28;20540;-73
2021/01/17 03:26:53;;;;;;;44.03;32.17;;;0.30;99.90;;;;;;5100759;28;20515;-72
2021/01/17 03:29:20;;;;;;;47.67;30.53;;;0.40;99.90;;;;;;5099693;28;20491;-73
2021/01/17 03:31:47;;;;;;;44.50;31.10;;;0.30;99.90;;;;;;5105676;28;20463;-72
2021/01/17 03:34:13;;;;;;;40.80;28.03;;;0.30;99.90;;;;;;5097479;28;20836;-73
2021/01/17 03:36:41;;;;;;;38.03;28.53;;;0.30;99.90;;;;;;5106663;28;20548;-73
2021/01/17 03:39:07;;;;;;;37.13;26.73;;;0.30;99.90;;;;;;5108175;28;20482;-73
2021/01/17 03:41:34;;;;;;;48.93;30.30;;;0.30;99.90;;;;;;5104196;28;20457;-73
2021/01/17 03:44:01;;;;;;;61.07;34.37;;;0.40;99.90;;;;;;5103124;28;20969;-73
2021/01/17 03:46:28;;;;;;;38.87;28.13;;;0.30;99.90;;;;;;5107751;28;20834;-74
2021/01/17 03:48:55;;;;;;;36.07;30.33;;;0.30;99.90;;;;;;5105710;28;20485;-74
2021/01/17 03:51:22;;;;;;;40.73;27.80;;;0.30;99.90;;;;;;5102704;28;20992;-74
2021/01/17 03:53:48;;;;;;;33.40;28.17;;;0.40;99.90;;;;;;5100627;28;20480;-73
2021/01/17 03:56:14;;;;;;;39.73;28.07;;;0.40;99.90;;;;;;5103999;28;20464;-73
2021/01/17 03:58:42;;;;;;;44.87;29.37;;;0.30;99.90;;;;;;5103385;28;20460;-74
2021/01/17 04:01:09;;;;;;;31.70;27.70;;;0.40;99.90;;;;;;5106171;27;20465;-74
2021/01/17 04:03:35;;;;;;;39.13;27.00;;;0.50;99.90;;;;;;5109097;28;20506;-74
2021/01/17 04:06:03;;;;;;;50.20;30.27;;;0.40;99.90;;;;;;5100434;28;20473;-73
2021/01/17 04:08:30;;;;;;;58.70;28.80;;;0.40;99.90;;;;;;5103793;28;20832;-73
2021/01/17 04:10:56;;;;;;;66.37;34.80;;;0.40;99.90;;;;;;5104744;28;20511;-73
2021/01/17 04:13:24;;;;;;;44.17;28.20;;;0.40;99.90;;;;;;5097874;28;20463;-72
2021/01/17 04:15:50;;;;;;;38.80;28.30;;;0.40;99.90;;;;;;5106526;27;20468;-73
2021/01/17 04:18:16;;;;;;;39.20;29.17;;;0.40;99.90;;;;;;5104647;28;20823;-74
2021/01/17 04:20:43;;;;;;;51.97;29.30;;;0.50;99.90;;;;;;5100900;28;20903;-74
2021/01/17 04:23:14;;;;;;;35.97;27.17;;;0.60;99.90;;;;;;5102937;28;20463;-74
2021/01/17 04:25:41;;;;;;;74.90;29.50;;;0.60;99.90;;;;;;5104111;27;20873;-74
2021/01/17 04:28:10;;;;;;;36.50;29.57;;;0.70;99.90;;;;;;5104368;28;20456;-73
2021/01/17 04:30:37;;;;;;;47.67;32.40;;;0.60;99.90;;;;;;5098860;28;20505;-73
2021/01/17 04:33:04;;;;;;;48.90;30.90;;;0.60;99.90;;;;;;5100890;28;20959;-73
2021/01/17 04:35:30;;;;;;;44.10;30.63;;;0.70;99.90;;;;;;5097005;28;20532;-74
2021/01/17 04:37:58;;;;;;;57.77;31.90;;;0.60;99.90;;;;;;5099881;28;20517;-73
2021/01/17 04:40:28;;;;;;;66.07;32.10;;;0.60;99.90;;;;;;5106102;28;20452;-74
2021/01/17 04:43:05;;;;;;;53.53;33.53;;;0.70;99.90;;;;;;5099393;28;20464;-73
2021/01/17 04:45:33;;;;;;;38.27;31.13;;;0.70;99.90;;;;;;5104338;28;20460;-75
2021/01/17 04:48:02;;;;;;;50.23;32.93;;;0.70;99.90;;;;;;5105732;28;21030;-73
2021/01/17 04:50:31;;;;;;;40.90;30.00;;;0.70;99.90;;;;;;5103789;28;20457;-75
2021/01/17 04:53:01;;;;;;;44.27;30.67;;;0.70;99.90;;;;;;5101816;28;20572;-74
2021/01/17 04:55:30;;;;;;;34.93;28.50;;;0.70;99.90;;;;;;5102200;28;20498;-75
2021/01/17 04:58:05;;;;;;;56.87;28.77;;;0.70;99.90;;;;;;5103042;28;20454;-74
2021/01/17 05:00:33;;;;;;;36.83;29.90;;;0.70;99.90;;;;;;5097904;28;20473;-73
2021/01/17 05:03:18;;;;;;;46.87;30.87;;;0.70;99.90;;;;;;5098210;28;20460;-74
2021/01/17 05:05:53;;;;;;;32.70;29.20;;;0.80;99.90;;;;;;5097945;28;20555;-72
2021/01/17 05:08:34;;;;;;;35.17;27.43;;;0.80;99.90;;;;;;5102505;28;21203;-74
2021/01/17 05:11:05;;;;;;;44.73;28.93;;;0.70;99.90;;;;;;5099735;28;21016;-72
2021/01/17 05:13:47;;;;;;;45.27;31.27;;;0.60;99.90;;;;;;5099588;28;20521;-73
2021/01/17 05:16:15;;;;;;;43.23;29.37;;;0.80;99.90;;;;;;5106939;28;20452;-74
2021/01/17 05:18:47;;;;;;;37.43;30.50;;;0.70;99.90;;;;;;5104821;28;20460;-73
2021/01/17 05:21:20;;;;;;;37.67;30.27;;;0.60;99.90;;;;;;5101597;28;20457;-75
2021/01/17 05:23:48;;;;;;;50.33;31.00;;;0.60;99.90;;;;;;5097810;28;20465;-73
2021/01/17 05:26:15;;;;;;;40.80;31.87;;;0.60;99.90;;;;;;5102512;28;20458;-73
2021/01/17 05:28:43;;;;;;;38.90;31.90;;;0.70;99.90;;;;;;5081334;28;541539;-72
2021/01/17 05:31:09;;;;;;;39.60;31.30;;;0.70;99.90;;;;;;5104092;28;20453;-74
2021/01/17 05:33:35;;;;;;;60.60;35.90;;;0.70;99.90;;;;;;5105574;28;20445;-74
2021/01/17 05:36:01;;;;;;;57.57;36.00;;;0.70;99.90;;;;;;5099892;28;20866;-73
2021/01/17 05:38:28;;;;;;;55.83;32.80;;;0.60;99.90;;;;;;5103616;27;20461;-73
2021/01/17 05:40:55;;;;;;;60.70;34.57;;;0.60;99.90;;;;;;5100043;28;20967;-74
2021/01/17 05:43:22;;;;;;;52.93;33.87;;;0.60;99.90;;;;;;5103834;28;20970;-73
2021/01/17 05:45:49;;;;;;;77.53;36.00;;;0.70;99.90;;;;;;5101360;28;20496;-71
2021/01/17 05:48:18;;;;;;;48.63;34.00;;;0.70;99.90;;;;;;5103880;28;20484;-73
2021/01/17 05:50:47;;;;;;;51.90;36.20;;;0.70;99.90;;;;;;5106435;28;20916;-73
2021/01/17 05:53:17;;;;;;;67.47;38.17;;;0.70;99.90;;;;;;5104662;28;20456;-71
2021/01/17 05:55:44;;;;;;;69.43;36.70;;;0.70;99.90;;;;;;5100199;28;20634;-74
2021/01/17 05:58:21;;;;;;;67.90;38.83;;;0.70;99.90;;;;;;5102100;28;20463;-71
2021/01/17 06:00:49;;;;;;;63.03;36.40;;;0.70;99.90;;;;;;5103993;28;20936;-71
2021/01/17 06:03:21;;;;;;;56.10;35.57;;;0.70;99.90;;;;;;5098880;28;20457;-71
2021/01/17 06:05:49;;;;;;;63.20;38.83;;;0.70;99.90;;;;;;5097154;28;20818;-72
2021/01/17 06:08:20;;;;;;;66.37;37.30;;;0.70;99.90;;;;;;5099298;28;20511;-73
2021/01/17 06:10:47;;;;;;;56.47;35.20;;;0.70;99.90;;;;;;5099355;28;20801;-71
2021/01/17 06:13:22;;;;;;;59.83;33.90;;;0.60;99.90;;;;;;5104741;28;21144;-72
2021/01/17 06:15:50;;;;;;;61.43;34.10;;;0.60;99.90;;;;;;5107914;27;20567;-72
2021/01/17 06:18:20;;;;;;;57.57;33.70;;;0.60;99.90;;;;;;5099845;28;20464;-71
2021/01/17 06:20:47;;;;;;;53.23;34.00;;;0.60;99.90;;;;;;5102216;28;20792;-71
2021/01/17 06:23:20;;;;;;;47.50;35.40;;;0.60;99.90;;;;;;5098359;27;22628;-73
2021/01/17 06:26:00;;;;;;;56.77;38.10;;;0.70;99.90;;;;;;5097759;27;20827;-74
2021/01/17 06:28:38;;;;;;;46.57;35.00;;;0.60;99.90;;;;;;5104482;27;20477;-73
2021/01/17 06:31:06;;;;;;;69.43;38.90;;;0.60;99.90;;;;;;5117862;27;20462;-73
2021/01/17 06:33:33;;;;;;;78.57;40.87;;;0.60;99.90;;;;;;5104975;27;20535;-73
2021/01/17 06:36:10;;;;;;;62.63;39.47;;;0.60;99.90;;;;;;5100400;27;20473;-73
2021/01/17 06:38:37;;;;;;;84.87;39.53;;;0.60;99.90;;;;;;5097675;27;20500;-74
2021/01/17 06:41:05;;;;;;;69.37;42.23;;;0.60;99.90;;;;;;5109056;27;20475;-73
2021/01/17 06:43:32;;;;;;;81.23;43.10;;;0.60;99.90;;;;;;5102568;27;20467;-74
2021/01/17 06:45:59;;;;;;;76.80;41.00;;;0.50;99.90;;;;;;5113137;27;20456;-72
2021/01/17 06:48:28;;;;;;;66.07;41.83;;;0.60;99.90;;;;;;5098345;28;21010;-73
2021/01/17 06:50:54;;;;;;;80.83;44.93;;;0.60;99.90;;;;;;5100479;27;20470;-72
2021/01/17 06:53:22;;;;;;;74.67;43.63;;;0.60;99.90;;;;;;5095676;28;20463;-72
2021/01/17 06:55:49;;;;;;;65.10;40.87;;;0.60;99.90;;;;;;5105137;27;20489;-74
2021/01/17 06:58:17;;;;;;;65.93;41.60;;;0.60;99.90;;;;;;5111625;27;20476;-73
2021/01/17 07:00:47;;;;;;;68.90;42.80;;;0.60;99.90;;;;;;5101041;27;20453;-74
2021/01/17 07:03:16;;;;;;;66.80;39.73;;;0.60;99.90;;;;;;5104277;27;20507;-74
2021/01/17 07:06:06;;;;;;;73.00;38.90;;;0.60;99.90;;;;;;5102738;28;20463;-75
2021/01/17 07:09:00;;;;;;;58.70;37.77;;;0.60;99.90;;;;;;5096360;28;20459;-75
2021/01/17 07:11:55;;;;;;;57.57;38.37;;;0.60;99.90;;;;;;5101755;28;20468;-74
2021/01/17 07:14:27;;;;;;;72.90;40.87;;;0.70;99.90;;;;;;5094184;28;21000;-75
2021/01/17 07:16:57;;;;;;;67.93;40.50;;;0.70;99.90;;;;;;5099478;28;20559;-75
2021/01/17 07:19:31;;;;;;;61.40;40.77;;;0.70;99.90;;;;;;5095820;28;20467;-75
2021/01/17 07:22:04;;;;;;;75.83;40.80;;;0.70;99.90;;;;;;5097692;28;20746;-73
2021/01/17 07:24:32;;;;;;;70.77;40.30;;;0.80;99.90;;;;;;5101440;28;20488;-75
2021/01/17 07:27:08;;;;;;;68.93;39.70;;;0.70;99.90;;;;;;5100341;28;20967;-75
2021/01/17 07:29:36;;;;;;;78.07;45.27;;;0.70;99.90;;;;;;5094026;28;20920;-73
2021/01/17 07:32:10;;;;;;;68.87;42.40;;;0.70;99.90;;;;;;5099383;28;20470;-73
2021/01/17 07:34:51;;;;;;;83.73;43.80;;;0.70;99.90;;;;;;5101502;28;20485;-73
2021/01/17 07:37:21;;;;;;;76.80;42.37;;;0.80;99.90;;;;;;5109530;28;20979;-73
2021/01/17 07:39:58;;;;;;;89.27;45.37;;;0.70;99.90;;;;;;5096981;28;20514;-74
2021/01/17 07:42:24;;;;;;;73.23;39.90;;;0.80;99.90;;;;;;5103481;28;20460;-73
2021/01/17 07:44:55;;;;;;;71.43;42.53;;;0.80;99.90;;;;;;5094613;28;20467;-72
2021/01/17 07:47:28;;;;;;;69.57;40.90;;;0.80;99.90;;;;;;5093294;28;20481;-73
2021/01/17 07:49:57;;;;;;;76.07;40.97;;;0.80;99.90;;;;;;5104366;28;20895;-74
2021/01/17 07:52:25;;;;;;;66.40;39.40;;;0.80;99.90;;;;;;5099542;28;20467;-75
2021/01/17 07:54:55;;;;;;;65.33;39.87;;;0.80;99.90;;;;;;5099992;28;20494;-73
2021/01/17 07:57:25;;;;;;;75.97;45.47;;;0.90;99.90;;;;;;5100105;28;21024;-73
2021/01/17 07:59:52;;;;;;;75.50;44.50;;;1.10;99.90;;;;;;5100296;28;20927;-73
2021/01/17 08:02:26;;;;;;;59.87;43.67;;;1.20;99.90;;;;;;5104204;28;20829;-73
2021/01/17 08:04:53;;;;;;;60.40;42.00;;;1.20;99.90;;;;;;5097362;28;20465;-75
2021/01/17 08:07:32;;;;;;;73.43;45.93;;;1.20;99.90;;;;;;5104904;28;20457;-73
2021/01/17 08:09:58;;;;;;;63.87;42.60;;;1.20;99.90;;;;;;5100476;28;20848;-76
2021/01/17 08:12:36;;;;;;;65.93;41.70;;;1.30;99.90;;;;;;5098918;28;20955;-73
2021/01/17 08:15:17;;;;;;;69.60;43.60;;;1.20;99.90;;;;;;5098545;28;20610;-73
2021/01/17 08:17:43;;;;;;;67.93;42.83;;;1.20;99.90;;;;;;5102043;28;20464;-74
2021/01/17 08:20:10;;;;;;;64.70;46.27;;;1.30;99.90;;;;;;5104241;28;20488;-74
2021/01/17 08:22:46;;;;;;;63.20;41.90;;;1.30;99.90;;;;;;5103165;28;20453;-76
2021/01/17 08:25:51;;;;;;;76.87;42.50;;;1.30;99.90;;;;;;5103200;28;20829;-75
2021/01/17 08:28:29;;;;;;;65.03;43.90;;;1.30;99.90;;;;;;5100633;28;20460;-76
2021/01/17 08:30:56;;;;;;;64.53;44.57;;;1.40;99.90;;;;;;5101486;28;20453;-75
2021/01/17 08:33:26;;;;;;;63.00;43.27;;;1.40;99.90;;;;;;5099391;28;20522;-77
2021/01/17 08:35:53;;;;;;;59.77;44.50;;;1.40;99.90;;;;;;5106631;28;20495;-75
2021/01/17 08:38:22;;;;;;;65.40;47.10;;;1.40;99.90;;;;;;5106692;28;20826;-75
2021/01/17 08:40:56;;;;;;;70.73;45.97;;;1.40;99.90;;;;;;5100449;28;20788;-76
2021/01/17 08:43:39;;;;;;;55.80;42.77;;;1.40;99.90;;;;;;5097661;28;20449;-76
2021/01/17 08:46:05;;;;;;;60.10;42.60;;;1.40;99.90;;;;;;5099955;28;21004;-75
2021/01/17 08:48:33;;;;;;;77.87;42.17;;;1.40;99.90;;;;;;5106766;28;20559;-76
2021/01/17 08:51:21;;;;;;;54.97;41.63;;;1.40;99.90;;;;;;5106352;28;20908;-76
2021/01/17 08:53:49;;;;;;;53.20;41.73;;;1.60;99.90;;;;;;5103680;28;20472;-76
2021/01/17 08:56:23;;;;;;;66.53;39.87;;;1.50;99.90;;;;;;5102702;28;20453;-76
2021/01/17 08:58:50;;;;;;;57.90;40.10;;;1.60;99.90;;;;;;5101907;28;20460;-76
2021/01/17 09:01:20;;;;;;;59.50;42.17;;;1.60;99.90;;;;;;5105494;28;20453;-77
2021/01/17 09:04:02;;;;;;;51.50;40.80;;;1.60;99.90;;;;;;5098316;28;20514;-77
2021/01/17 09:06:40;;;;;;;56.10;41.20;;;1.60;99.90;;;;;;5096170;28;20462;-77
2021/01/17 09:09:12;;;;;;;54.70;41.37;;;1.60;99.90;;;;;;5099604;28;20510;-77
2021/01/17 09:11:39;;;;;;;66.63;42.97;;;1.60;99.90;;;;;;5097722;28;20457;-76
2021/01/17 09:14:18;;;;;;;66.53;44.43;;;1.70;99.90;;;;;;5094642;28;20879;-76
2021/01/17 09:16:48;;;;;;;65.57;43.20;;;1.70;99.90;;;;;;5103343;27;20488;-77
2021/01/17 09:19:16;;;;;;;64.67;45.00;;;1.80;99.90;;;;;;5104154;28;20465;-77
2021/01/17 09:21:43;;;;;;;54.60;42.03;;;1.90;99.90;;;;;;5104137;28;20477;-76
2021/01/17 09:24:15;;;;;;;51.43;39.40;;;1.80;99.90;;;;;;5100062;28;20466;-77
2021/01/17 09:26:45;;;;;;;56.40;41.03;;;1.80;99.90;;;;;;5100602;28;20552;-77
2021/01/17 09:29:20;;;;;;;72.07;42.20;;;1.60;99.90;;;;;;5098792;28;20491;-77
2021/01/17 09:31:51;;;;;;;49.80;41.93;;;1.70;99.90;;;;;;5105503;28;20484;-78
2021/01/17 09:34:30;;;;;;;51.10;41.00;;;1.80;99.90;;;;;;5097494;28;20482;-77
2021/01/17 09:36:57;;;;;;;58.73;43.10;;;1.70;99.90;;;;;;5095616;27;20474;-77
2021/01/17 09:39:37;;;;;;;63.97;45.30;;;1.70;99.90;;;;;;5104458;28;20459;-77
2021/01/17 09:42:06;;;;;;;56.50;42.50;;;1.70;99.90;;;;;;5097259;28;20845;-77
2021/01/17 09:44:33;;;;;;;70.13;46.73;;;1.70;99.90;;;;;;5096916;28;20461;-77
2021/01/17 09:47:00;;;;;;;71.73;44.87;;;1.80;99.90;;;;;;5102134;28;20481;-78
2021/01/17 09:49:29;;;;;;;74.37;45.20;;;1.80;99.90;;;;;;5104254;28;20464;-76
2021/01/17 09:51:58;;;;;;;70.27;44.07;;;1.90;99.90;;;;;;5095711;27;20971;-76
2021/01/17 09:54:26;;;;;;;72.60;46.43;;;1.90;99.90;;;;;;5108000;27;20481;-79
2021/01/17 09:56:54;;;;;;;78.63;48.53;;;1.90;99.90;;;;;;5095419;27;20462;-77
2021/01/17 09:59:22;;;;;;;85.10;50.53;;;2.00;99.90;;;;;;5098631;27;20516;-77
2021/01/17 10:01:50;;;;;;;90.63;49.20;;;2.00;99.90;;;;;;5096910;27;20454;-78
2021/01/17 10:04:24;;;;;;;77.43;49.10;;;2.10;99.90;;;;;;5103648;27;20801;-76
2021/01/17 10:06:56;;;;;;;79.03;47.73;;;2.10;99.90;;;;;;5101861;27;20472;-77
2021/01/17 10:09:23;;;;;;;93.23;49.03;;;2.10;99.90;;;;;;5107021;27;20543;-77
2021/01/17 10:11:55;;;;;;;87.67;48.00;;;2.10;99.90;;;;;;5102324;27;20462;-77
2021/01/17 10:14:22;;;;;;;91.67;48.07;;;2.20;99.90;;;;;;5100144;27;20631;-77
2021/01/17 10:16:50;;;;;;;100.07;50.87;;;2.20;99.90;;;;;;5099372;27;20469;-76
2021/01/17 10:19:18;;;;;;;100.77;50.83;;;2.30;99.90;;;;;;5101936;28;20988;-76
2021/01/17 10:21:44;;;;;;;125.93;50.73;;;2.40;99.90;;;;;;5106953;27;20540;-75
2021/01/17 10:24:12;;;;;;;111.03;53.90;;;2.40;99.90;;;;;;5099930;27;20473;-76
2021/01/17 10:26:38;;;;;;;96.40;50.60;;;2.50;99.90;;;;;;5102611;27;20461;-77
2021/01/17 10:29:07;;;;;;;99.80;53.43;;;2.50;99.90;;;;;;5112094;27;20676;-77
2021/01/17 10:31:37;;;;;;;110.43;51.93;;;2.60;99.90;;;;;;5098761;27;20458;-77
2021/01/17 10:34:04;;;;;;;96.20;49.77;;;2.50;99.90;;;;;;5110798;27;20487;-77
2021/01/17 10:36:31;;;;;;;94.93;53.60;;;2.60;99.90;;;;;;5105219;27;20562;-77
2021/01/17 10:38:57;;;;;;;87.27;47.07;;;2.70;99.90;;;;;;5097058;27;20473;-77
2021/01/17 10:41:26;;;;;;;87.60;49.23;;;2.80;99.90;;;;;;5112338;27;20902;-76
2021/01/17 10:44:06;;;;;;;85.83;51.50;;;2.80;99.90;;;;;;5104673;27;20514;-76
2021/01/17 10:46:38;;;;;;;105.70;51.90;;;2.90;99.90;;;;;;5098480;27;20774;-76
2021/01/17 10:49:09;;;;;;;90.30;52.30;;;3.00;99.90;;;;;;5096081;28;20471;-76
2021/01/17 10:51:41;;;;;;;86.20;49.00;;;3.20;99.90;;;;;;5099278;27;20464;-77
2021/01/17 10:54:09;;;;;;;94.00;48.90;;;3.10;99.90;;;;;;5098185;28;20469;-77
2021/01/17 10:56:37;;;;;;;73.30;48.60;;;3.20;99.90;;;;;;5103941;27;20478;-77
2021/01/17 10:59:12;;;;;;;83.43;48.80;;;3.20;99.90;;;;;;5104360;27;20471;-77
2021/01/17 11:01:45;;;;;;;73.57;47.60;;;3.20;99.90;;;;;;5089547;28;20568;-77
2021/01/17 11:04:14;;;;;;;74.97;49.17;;;3.30;99.90;;;;;;5096956;27;20500;-77
2021/01/17 11:06:43;;;;;;;71.80;47.73;;;3.50;99.90;;;;;;5103634;27;20461;-77
2021/01/17 11:09:13;;;;;;;72.00;50.07;;;3.70;99.90;;;;;;5098983;27;20457;-77
2021/01/17 11:11:44;;;;;;;93.70;48.37;;;3.90;99.90;;;;;;5098211;28;20465;-77
2021/01/17 11:14:10;;;;;;;85.30;50.63;;;4.00;99.90;;;;;;5097064;27;20448;-77
2021/01/17 11:16:38;;;;;;;78.27;46.93;;;4.10;99.90;;;;;;5092052;28;21050;-77
2021/01/17 11:19:05;;;;;;;95.10;49.20;;;4.20;99.90;;;;;;5103054;27;20475;-77
2021/01/17 11:21:32;;;;;;;95.17;50.30;;;4.30;99.90;;;;;;5095905;28;20886;-77
2021/01/17 11:23:58;;;;;;;85.97;47.27;;;4.40;99.90;;;;;;5096688;28;20450;-77
2021/01/17 11:26:26;;;;;;;100.67;49.57;;;4.30;99.90;;;;;;5090695;28;21056;-77
2021/01/17 11:28:53;;;;;;;85.30;50.47;;;4.40;99.90;;;;;;5102377;28;20478;-77
2021/01/17 11:31:20;;;;;;;90.47;47.73;;;4.40;99.90;;;;;;5101411;28;20825;-77
2021/01/17 11:33:47;;;;;;;88.33;45.93;;;4.50;99.90;;;;;;5098369;28;20460;-77
2021/01/17 11:36:18;;;;;;;96.40;48.07;;;4.60;99.90;;;;;;5090554;28;20494;-77
2021/01/17 11:38:50;;;;;;;93.53;46.70;;;4.70;99.90;;;;;;5096798;28;20461;-77
2021/01/17 11:41:18;;;;;;;90.80;49.13;;;4.60;99.90;;;;;;5098131;28;20488;-76
2021/01/17 11:43:45;;;;;;;93.30;52.67;;;4.70;99.90;;;;;;5099498;28;20456;-77
2021/01/17 11:46:13;;;;;;;92.37;47.90;;;4.70;99.90;;;;;;5101849;28;20995;-77
2021/01/17 11:48:41;;;;;;;84.93;49.27;;;4.60;99.90;;;;;;5094190;28;20897;-77
2021/01/17 11:51:09;;;;;;;74.47;49.10;;;4.60;99.90;;;;;;5090796;28;20643;-76
2021/01/17 11:53:37;;;;;;;86.33;50.67;;;4.60;99.90;;;;;;5098760;28;20475;-77
2021/01/17 11:56:04;;;;;;;102.13;50.57;;;4.60;99.90;;;;;;5095735;27;20486;-77
2021/01/17 11:58:39;;;;;;;73.73;51.17;;;4.60;99.90;;;;;;5105531;27;20457;-77
2021/01/17 12:01:06;;;;;;;88.00;51.00;;;4.70;99.90;;;;;;5107734;27;21006;-77
2021/01/17 12:03:35;;;;;;;87.63;50.60;;;4.80;99.90;;;;;;5107489;27;20514;-78
2021/01/17 12:06:19;;;;;;;89.37;49.23;;;4.70;99.90;;;;;;5105483;27;20472;-77
2021/01/17 12:08:54;;;;;;;68.13;48.40;;;4.60;99.90;;;;;;5098434;27;20550;-78
2021/01/17 12:11:39;;;;;;;85.00;48.33;;;4.60;99.90;;;;;;5097872;27;20457;-78
2021/01/17 12:14:07;;;;;;;101.70;49.03;;;4.70;99.90;;;;;;5095895;28;20461;-78
2021/01/17 12:16:36;;;;;;;74.03;45.97;;;4.70;99.90;;;;;;5100575;27;20458;-79
2021/01/17 12:19:04;;;;;;;75.53;48.47;;;4.80;99.90;;;;;;5096761;27;20967;-79
2021/01/17 12:21:31;;;;;;;77.13;48.57;;;4.90;99.90;;;;;;5109813;27;20952;-78
2021/01/17 12:23:59;;;;;;;72.53;43.77;;;5.10;99.90;;;;;;5101584;27;20454;-79
2021/01/17 12:26:27;;;;;;;60.03;43.77;;;5.20;99.90;;;;;;5103464;27;20835;-78
2021/01/17 12:28:54;;;;;;;71.87;45.53;;;5.40;99.90;;;;;;5098769;27;20881;-79
2021/01/17 12:31:22;;;;;;;82.50;44.13;;;5.60;99.90;;;;;;5106088;27;20465;-78
2021/01/17 12:33:50;;;;;;;67.50;41.87;;;5.70;99.90;;;;;;5099739;27;20458;-78
2021/01/17 12:36:18;;;;;;;67.17;44.70;;;5.90;99.90;;;;;;5105127;27;20493;-78
2021/01/17 12:38:46;;;;;;;86.63;44.00;;;6.00;99.90;;;;;;5104515;27;20603;-79
2021/01/17 12:41:15;;;;;;;73.60;44.97;;;6.00;99.90;;;;;;5099379;27;20489;-79
2021/01/17 12:43:42;;;;;;;73.60;42.63;;;6.00;99.90;;;;;;5097868;28;20461;-79
2021/01/17 12:46:09;;;;;;;73.63;43.23;;;6.00;99.90;;;;;;5099477;27;20458;-79
2021/01/17 12:48:36;;;;;;;63.33;42.47;;;6.10;99.90;;;;;;5106967;27;20491;-79